createdAt,value
2022-09-05T00:03:02.614Z,5.35
2022-09-05T00:06:21.037Z,5.17
2022-09-05T00:10:03.625Z,5.10
2022-09-05T00:13:14.024Z,5.90
2022-09-05T00:16:47.447Z,5.62
2022-09-05T00:23:21.490Z,5.45
2022-09-05T00:24:35.329Z,6.22
2022-09-05T00:27:34.765Z,6.15
2022-09-05T00:31:07.376Z,7.28
2022-09-05T00:34:14.546Z,10.18
2022-09-05T00:37:24.523Z,10.82
2022-09-05T00:41:03.857Z,14.63
2022-09-05T00:44:10.651Z,13.90
2022-09-05T00:47:42.639Z,15.43
2022-09-05T00:50:53.724Z,15.40
2022-09-05T00:54:16.091Z,14.70
2022-09-05T00:57:49.433Z,12.60
2022-09-05T01:01:02.849Z,11.57
2022-09-05T01:04:32.635Z,9.60
2022-09-05T01:08:02.132Z,7.62
2022-09-05T01:11:21.369Z,6.95
2022-09-05T01:14:42.233Z,7.80
2022-09-05T01:18:26.451Z,7.22
2022-09-05T01:21:54.942Z,6.58
2022-09-05T01:25:25.163Z,7.03
2022-09-05T01:29:17.907Z,5.92
2022-09-05T01:32:27.530Z,5.72
2022-09-05T01:36:12.253Z,6.45
2022-09-05T01:40:11.394Z,6.03
2022-09-05T01:42:57.558Z,5.65
2022-09-05T01:46:37.628Z,6.37
2022-09-05T01:50:05.146Z,6.30
2022-09-05T01:53:36.551Z,6.62
2022-09-05T01:57:06.260Z,6.10
2022-09-05T02:00:38.648Z,5.25
2022-09-05T02:04:22.012Z,5.20
2022-09-05T02:07:45.374Z,6.15
2022-09-05T02:11:02.519Z,5.87
2022-09-05T02:14:13.197Z,5.40
2022-09-05T02:17:51.199Z,6.15
2022-09-05T02:20:59.418Z,4.67
2022-09-05T02:24:20.450Z,5.30
2022-09-05T02:28:04.292Z,6.03
2022-09-05T02:31:08.170Z,5.55
2022-09-05T02:34:07.556Z,5.87
2022-09-05T02:38:51.032Z,5.70
2022-09-05T02:45:10.556Z,5.10
2022-09-05T02:45:13.702Z,5.70
2022-09-05T02:47:44.712Z,5.47
2022-09-05T02:56:55.183Z,5.50
2022-09-05T02:57:34.203Z,6.08
2022-09-05T02:58:13.903Z,5.22
2022-09-05T03:01:29.576Z,5.25
2022-09-05T03:04:45.842Z,4.80
2022-09-05T03:08:17.207Z,4.95
2022-09-05T03:12:08.499Z,5.15
2022-09-05T03:15:45.072Z,5.00
2022-09-05T03:19:47.031Z,4.78
2022-09-05T03:22:59.599Z,5.30
2022-09-05T03:26:46.778Z,4.40
2022-09-05T03:30:01.560Z,4.47
2022-09-05T03:33:40.806Z,4.67
2022-09-05T03:37:14.876Z,5.37
2022-09-05T03:41:03.230Z,4.58
2022-09-05T03:44:29.678Z,4.00
2022-09-05T03:48:27.771Z,3.90
2022-09-05T03:57:08.731Z,4.22
2022-09-05T03:57:28.230Z,3.95
2022-09-05T03:59:02.094Z,3.70
2022-09-05T04:04:00.308Z,4.85
2022-09-05T04:08:24.665Z,3.77
2022-09-05T04:08:42.064Z,4.67
2022-09-05T04:11:58.270Z,5.80
2022-09-05T04:15:20.546Z,4.65
2022-09-05T04:18:45.791Z,4.05
2022-09-05T04:21:50.872Z,4.17
2022-09-05T04:25:16.375Z,4.22
2022-09-05T04:28:37.233Z,4.05
2022-09-05T04:32:17.809Z,3.90
2022-09-05T04:35:38.209Z,3.12
2022-09-05T04:38:52.832Z,3.20
2022-09-05T04:42:22.692Z,3.25
2022-09-05T04:45:28.619Z,2.40
2022-09-05T04:48:45.264Z,2.65
2022-09-05T04:52:24.089Z,2.20
2022-09-05T04:55:24.598Z,1.92
2022-09-05T05:01:58.960Z,2.62
2022-09-05T05:06:00.769Z,2.20
2022-09-05T05:06:09.582Z,2.47
2022-09-05T05:08:38.931Z,1.98
2022-09-05T05:17:54.345Z,1.95
2022-09-05T05:18:06.881Z,1.87
2022-09-05T05:18:56.525Z,1.82
2022-09-05T05:21:51.870Z,2.22
2022-09-05T05:25:06.898Z,2.42
2022-09-05T05:28:27.827Z,2.25
2022-09-05T05:31:45.102Z,2.95
2022-09-05T05:34:58.343Z,2.98
2022-09-05T05:38:30.582Z,3.87
2022-09-05T05:41:41.844Z,3.77
2022-09-05T05:44:49.179Z,3.47
2022-09-05T05:48:02.070Z,3.73
2022-09-05T05:51:47.540Z,3.40
2022-09-05T05:55:45.239Z,3.90
2022-09-05T05:58:43.251Z,3.90
2022-09-05T06:02:27.664Z,4.10
2022-09-05T06:06:10.142Z,4.40
2022-09-05T06:14:47.863Z,4.53
2022-09-05T06:14:57.994Z,4.90
2022-09-05T06:17:40.743Z,5.37
2022-09-05T06:22:10.742Z,5.33
2022-09-05T06:25:39.278Z,5.22
2022-09-05T06:29:09.434Z,5.50
2022-09-05T06:35:45.619Z,4.65
2022-09-05T06:39:17.370Z,4.50
2022-09-05T06:42:43.232Z,4.53
2022-09-05T06:45:58.879Z,5.03
2022-09-05T06:49:33.477Z,4.12
2022-09-05T06:53:30.097Z,4.87
2022-09-05T06:56:33.052Z,4.53
2022-09-05T07:00:35.833Z,4.83
2022-09-05T07:04:33.353Z,4.35
2022-09-05T07:10:52.979Z,4.53
2022-09-05T07:14:11.809Z,4.28
2022-09-05T07:17:53.545Z,4.40
2022-09-05T07:21:17.411Z,4.47
2022-09-05T07:24:53.212Z,3.40
2022-09-05T07:28:28.395Z,4.53
2022-09-05T07:31:09.624Z,3.67
2022-09-05T07:34:41.088Z,4.25
2022-09-05T07:37:51.329Z,3.65
2022-09-05T07:41:16.094Z,3.92
2022-09-05T07:44:40.534Z,3.70
2022-09-05T07:47:48.070Z,2.87
2022-09-05T07:52:21.105Z,2.45
2022-09-05T07:57:03.983Z,3.22
2022-09-05T07:57:50.850Z,1.92
2022-09-05T08:00:49.874Z,2.05
2022-09-05T08:03:55.651Z,2.70
2022-09-05T08:07:47.021Z,2.40
2022-09-05T08:10:15.795Z,2.72
2022-09-05T08:16:32.120Z,2.50
2022-09-05T08:20:21.194Z,2.92
2022-09-05T08:24:13.274Z,2.83
2022-09-05T08:27:38.706Z,2.08
2022-09-05T08:30:47.294Z,2.40
2022-09-05T08:33:54.982Z,2.30
2022-09-05T08:37:05.265Z,2.15
2022-09-05T08:40:18.756Z,1.90
2022-09-05T08:46:38.032Z,2.08
2022-09-05T08:47:45.436Z,2.20
2022-09-05T08:51:11.800Z,2.22
2022-09-05T08:54:49.811Z,2.45
2022-09-05T08:58:15.648Z,1.98
2022-09-05T09:01:44.542Z,2.02
2022-09-05T09:05:22.071Z,2.22
2022-09-05T09:09:05.358Z,2.35
2022-09-05T09:12:22.790Z,1.60
2022-09-05T09:15:35.371Z,1.70
2022-09-05T09:19:08.057Z,1.92
2022-09-05T09:22:50.103Z,1.77
2022-09-05T09:26:06.797Z,1.52
2022-09-05T09:29:22.993Z,1.90
2022-09-05T09:32:45.861Z,2.00
2022-09-05T09:36:07.709Z,2.00
2022-09-05T09:39:37.790Z,1.85
2022-09-05T09:43:06.778Z,2.00
2022-09-05T09:46:34.021Z,1.40
2022-09-05T09:49:51.134Z,1.70
2022-09-05T09:53:22.223Z,1.60
2022-09-05T09:56:48.996Z,2.27
2022-09-05T10:00:27.865Z,2.00
2022-09-05T10:10:23.317Z,2.00
2022-09-05T10:10:47.950Z,1.70
2022-09-05T10:10:57.760Z,1.77
2022-09-05T10:14:49.287Z,1.60
2022-09-05T10:18:12.943Z,1.70
2022-09-05T10:21:44.951Z,1.55
2022-09-05T10:25:37.553Z,1.60
2022-09-05T10:28:51.443Z,1.85
2022-09-05T10:35:10.322Z,1.55
2022-09-05T10:35:48.676Z,1.42
2022-09-05T10:39:00.656Z,1.47
2022-09-05T10:42:23.704Z,1.67
2022-09-05T10:45:38.929Z,1.37
2022-09-05T10:48:56.352Z,1.37
2022-09-05T10:52:18.523Z,1.20
2022-09-05T10:56:05.136Z,1.20
2022-09-05T11:02:16.413Z,1.35
2022-09-05T11:02:42.396Z,1.00
2022-09-05T11:05:54.414Z,1.00
2022-09-05T11:09:23.146Z,1.50
2022-09-05T11:12:57.766Z,1.30
2022-09-05T11:16:46.036Z,1.20
2022-09-05T11:20:00.182Z,1.35
2022-09-05T11:23:05.799Z,1.35
2022-09-05T11:26:15.754Z,1.37
2022-09-05T11:29:24.826Z,1.10
2022-09-05T11:38:16.546Z,1.10
2022-09-05T11:40:08.285Z,1.50
2022-09-05T11:40:31.357Z,1.22
2022-09-05T11:43:30.483Z,1.30
2022-09-05T11:47:27.218Z,1.20
2022-09-05T11:50:32.327Z,1.90
2022-09-05T11:54:02.190Z,1.60
2022-09-05T11:57:33.302Z,1.25
2022-09-05T12:01:38.332Z,1.40
2022-09-05T12:05:48.857Z,1.05
2022-09-05T12:08:50.303Z,1.30
2022-09-05T12:12:40.966Z,1.00
2022-09-05T12:15:52.066Z,1.20
2022-09-05T12:18:44.777Z,1.47
2022-09-05T12:22:10.267Z,1.37
2022-09-05T12:29:27.370Z,0.90
2022-09-05T12:33:32.758Z,0.82
2022-09-05T12:36:10.278Z,1.22
2022-09-05T12:41:33.997Z,1.15
2022-09-05T12:42:08.623Z,1.20
2022-09-05T12:42:27.833Z,1.05
2022-09-05T12:45:39.491Z,0.95
2022-09-05T12:49:04.609Z,1.25
2022-09-05T12:55:38.155Z,0.85
2022-09-05T13:02:57.553Z,1.12
2022-09-05T13:03:02.329Z,0.85
2022-09-05T13:05:05.950Z,1.17
2022-09-05T13:08:12.805Z,1.15
2022-09-05T13:14:48.062Z,1.17
2022-09-05T13:14:53.083Z,1.40
2022-09-05T13:17:59.950Z,1.27
2022-09-05T13:21:14.941Z,1.20
2022-09-05T13:24:29.331Z,1.10
2022-09-05T13:27:40.077Z,1.20
2022-09-05T13:34:50.715Z,1.20
2022-09-05T13:38:01.202Z,1.37
2022-09-05T13:38:17.620Z,1.10
2022-09-05T13:40:42.383Z,2.00
2022-09-05T13:43:42.522Z,1.30
2022-09-05T13:46:45.125Z,1.50
2022-09-05T13:49:47.426Z,1.37
2022-09-05T13:52:56.758Z,0.95
2022-09-05T13:56:07.315Z,1.05
2022-09-05T13:59:26.458Z,1.20
2022-09-05T14:06:36.615Z,1.60
2022-09-05T14:09:50.893Z,1.52
2022-09-05T14:13:05.694Z,1.40
2022-09-05T14:16:18.655Z,0.93
2022-09-05T14:19:49.924Z,1.72
2022-09-05T14:23:09.565Z,1.30
2022-09-05T14:26:16.486Z,1.50
2022-09-05T14:29:42.949Z,1.62
2022-09-05T14:37:40.947Z,1.57
2022-09-05T14:37:52.208Z,1.30
2022-09-05T14:40:30.757Z,1.37
2022-09-05T14:43:37.553Z,1.35
2022-09-05T14:47:35.074Z,1.20
2022-09-05T14:50:55.623Z,1.40
2022-09-05T15:02:38.684Z,1.42
2022-09-05T15:02:55.256Z,1.30
2022-09-05T15:12:18.010Z,1.32
2022-09-05T15:13:46.339Z,1.45
2022-09-05T15:16:54.999Z,1.55
2022-09-05T15:20:11.751Z,1.60
2022-09-05T15:23:26.273Z,1.40
2022-09-05T15:26:35.929Z,1.62
2022-09-05T15:29:49.454Z,1.50
2022-09-05T15:32:55.282Z,1.35
2022-09-05T15:36:01.174Z,1.40
2022-09-05T15:39:11.751Z,1.32
2022-09-05T15:42:34.217Z,1.00
2022-09-05T15:45:52.839Z,1.30
2022-09-05T15:48:58.530Z,1.77
2022-09-05T15:52:06.184Z,1.47
2022-09-05T15:55:24.684Z,1.37
2022-09-05T15:58:35.954Z,1.50
2022-09-05T16:01:59.948Z,1.87
2022-09-05T16:10:28.190Z,1.20
2022-09-05T16:10:38.256Z,1.57
2022-09-05T16:15:53.506Z,1.65
2022-09-05T16:23:17.036Z,1.40
2022-09-05T16:23:32.504Z,1.87
2022-09-05T16:24:58.465Z,5.35
2022-09-05T16:28:13.949Z,4.97
2022-09-05T16:31:53.411Z,5.28
2022-09-05T16:35:17.110Z,4.58
2022-09-05T16:38:49.911Z,4.05
2022-09-05T16:42:00.108Z,5.55
2022-09-05T16:45:10.630Z,5.08
2022-09-05T16:48:44.481Z,4.58
2022-09-05T16:52:06.587Z,5.42
2022-09-05T16:55:34.365Z,6.53
2022-09-05T16:59:03.639Z,5.67
2022-09-05T17:02:38.117Z,6.83
2022-09-05T17:05:56.646Z,7.90
2022-09-05T17:09:12.980Z,7.58
2022-09-05T17:12:08.949Z,7.85
2022-09-05T17:15:19.489Z,7.87
2022-09-05T17:18:31.801Z,7.45
2022-09-05T17:27:31.829Z,7.78
2022-09-05T17:29:34.490Z,8.83
2022-09-05T17:31:50.898Z,9.40
2022-09-05T17:34:32.364Z,10.05
2022-09-05T17:38:11.010Z,8.78
2022-09-05T17:44:47.972Z,8.50
2022-09-05T17:48:07.066Z,9.38
2022-09-05T17:51:12.288Z,9.53
2022-09-05T17:54:24.845Z,9.05
2022-09-05T17:57:48.380Z,9.78
2022-09-05T18:01:04.216Z,9.70
2022-09-05T18:04:17.636Z,10.05
2022-09-05T18:10:30.610Z,10.63
2022-09-05T18:13:36.580Z,10.68
2022-09-05T18:17:35.974Z,11.75
2022-09-05T18:20:07.387Z,10.45
2022-09-05T18:23:39.449Z,11.38
2022-09-05T18:26:43.354Z,11.60
2022-09-05T18:29:58.206Z,10.75
2022-09-05T18:33:56.385Z,11.30
2022-09-05T18:36:33.533Z,11.55
2022-09-05T18:39:53.030Z,11.70
2022-09-05T18:43:10.577Z,12.20
2022-09-05T18:46:13.766Z,12.45
2022-09-05T18:50:24.634Z,12.43
2022-09-05T18:53:09.060Z,12.80
2022-09-05T18:57:02.982Z,12.68
2022-09-05T18:59:51.532Z,12.93
2022-09-05T19:03:03.978Z,13.55
2022-09-05T19:06:36.716Z,13.25
2022-09-05T19:09:26.667Z,14.10
2022-09-05T19:12:33.116Z,13.30
2022-09-05T19:15:41.119Z,13.32
2022-09-05T19:18:48.637Z,13.18
2022-09-05T19:22:39.527Z,15.60
2022-09-05T19:25:15.151Z,13.08
2022-09-05T19:36:50.010Z,13.20
2022-09-05T19:36:54.779Z,13.25
2022-09-05T19:37:09.247Z,14.45
2022-09-05T19:38:16.012Z,15.15
2022-09-05T19:47:25.257Z,14.63
2022-09-05T19:47:39.124Z,14.60
2022-09-05T19:48:07.674Z,14.45
2022-09-05T19:51:16.830Z,15.30
2022-09-05T19:54:19.067Z,15.32
2022-09-05T19:57:31.574Z,15.25
2022-09-05T20:00:32.982Z,15.13
2022-09-05T20:03:39.910Z,14.60
2022-09-05T20:06:45.048Z,13.48
2022-09-05T20:09:58.256Z,15.00
2022-09-05T20:13:03.203Z,14.18
2022-09-05T20:16:08.616Z,13.35
2022-09-05T20:19:14.444Z,13.10
2022-09-05T20:22:47.597Z,11.85
2022-09-05T20:25:56.593Z,13.58
2022-09-05T20:29:02.976Z,13.43
2022-09-05T20:32:08.881Z,12.05
2022-09-05T20:38:00.637Z,12.43
2022-09-05T20:43:18.017Z,11.60
2022-09-05T20:43:29.087Z,11.85
2022-09-05T20:44:47.969Z,12.07
2022-09-05T20:54:05.522Z,12.53
2022-09-05T20:54:32.109Z,11.65
2022-09-05T20:57:32.020Z,11.70
2022-09-05T21:00:38.617Z,11.78
2022-09-05T21:03:46.191Z,11.50
2022-09-05T21:06:53.975Z,10.72
2022-09-05T21:10:13.988Z,10.10
2022-09-05T21:13:20.409Z,10.75
2022-09-05T21:16:31.697Z,10.58
2022-09-05T21:19:53.536Z,10.90
2022-09-05T21:22:57.883Z,10.05
2022-09-05T21:26:08.824Z,11.03
2022-09-05T21:29:27.217Z,12.40
2022-09-05T21:32:38.263Z,12.63
2022-09-05T21:35:39.048Z,12.23
2022-09-05T21:38:55.445Z,11.93
2022-09-05T21:42:06.471Z,12.68
2022-09-05T21:47:48.739Z,12.47
2022-09-05T21:48:17.123Z,12.50
2022-09-05T21:51:28.976Z,12.93
2022-09-05T21:59:20.899Z,12.18
2022-09-05T21:59:33.206Z,12.40
2022-09-05T22:00:56.709Z,13.83
2022-09-05T22:04:04.405Z,13.58
2022-09-05T22:07:11.957Z,13.70
2022-09-05T22:10:19.048Z,14.18
2022-09-05T22:13:25.465Z,13.38
2022-09-05T22:16:31.641Z,14.03
2022-09-05T22:19:40.203Z,14.07
2022-09-05T22:22:46.860Z,13.95
2022-09-05T22:25:51.360Z,16.32
2022-09-05T22:28:56.329Z,15.40
2022-09-05T22:32:02.933Z,14.20
2022-09-05T22:35:27.490Z,15.30
2022-09-05T22:38:21.489Z,14.85
2022-09-05T22:41:30.301Z,15.90
2022-09-05T22:44:33.662Z,15.98
2022-09-05T22:47:39.465Z,15.83
2022-09-05T22:50:44.866Z,15.25
2022-09-05T22:53:50.072Z,15.78
2022-09-05T22:56:57.244Z,16.07
2022-09-05T23:00:03.532Z,15.53
2022-09-05T23:03:14.082Z,15.08
2022-09-05T23:06:22.525Z,15.60
2022-09-05T23:09:28.802Z,16.70
2022-09-05T23:12:35.494Z,16.60
2022-09-05T23:15:42.366Z,15.78
2022-09-05T23:18:49.367Z,15.32
2022-09-05T23:21:55.965Z,16.02
2022-09-05T23:25:02.557Z,16.85
2022-09-05T23:28:08.326Z,18.48
2022-09-05T23:31:17.103Z,19.50
2022-09-05T23:34:23.523Z,18.62
2022-09-05T23:37:29.657Z,17.07
2022-09-05T23:40:36.489Z,17.55
2022-09-05T23:43:42.380Z,16.23
2022-09-05T23:46:47.838Z,16.82
2022-09-05T23:49:54.780Z,17.32
2022-09-05T23:53:01.992Z,16.70
2022-09-05T23:56:08.553Z,17.10
2022-09-05T23:59:14.642Z,18.05
